createdAt,value
2023-01-05T00:01:38.208Z,10.40
2023-01-05T00:04:07.328Z,10.50
2023-01-05T00:06:37.329Z,10.50
2023-01-05T00:09:06.304Z,10.50
2023-01-05T00:11:53.432Z,10.40
2023-01-05T00:14:41.405Z,10.50
2023-01-05T00:17:31.767Z,10.50
2023-01-05T00:20:18.198Z,10.50
2023-01-05T00:22:48.173Z,10.50
2023-01-05T00:25:18.079Z,10.50
2023-01-05T00:27:50.747Z,10.50
2023-01-05T00:30:20.492Z,10.50
2023-01-05T00:32:50.215Z,10.40
2023-01-05T00:35:19.121Z,10.40
2023-01-05T00:37:47.225Z,10.30
2023-01-05T00:40:17.105Z,10.30
2023-01-05T00:42:47.476Z,10.30
2023-01-05T00:45:17.677Z,10.30
2023-01-05T00:47:46.034Z,10.30
2023-01-05T00:50:16.299Z,10.20
2023-01-05T00:52:45.407Z,10.20
2023-01-05T00:55:14.189Z,10.10
2023-01-05T00:57:42.632Z,10.10
2023-01-05T01:00:17.253Z,10.10
2023-01-05T01:02:45.988Z,10.00
2023-01-05T01:05:14.533Z,10.10
2023-01-05T01:07:43.047Z,10.00
2023-01-05T01:10:13.012Z,10.10
2023-01-05T01:15:09.704Z,10.10
2023-01-05T01:17:39.184Z,10.10
2023-01-05T01:20:08.668Z,10.10
2023-01-05T01:22:37.169Z,10.10
2023-01-05T01:25:06.172Z,10.10
2023-01-05T01:27:34.888Z,10.20
2023-01-05T01:30:02.954Z,10.20
2023-01-05T01:32:31.018Z,10.20
2023-01-05T01:35:00.576Z,10.30
2023-01-05T01:37:28.640Z,10.30
2023-01-05T01:39:58.445Z,10.30
2023-01-05T01:42:27.325Z,10.30
2023-01-05T01:44:58.839Z,10.30
2023-01-05T01:47:43.138Z,10.30
2023-01-05T01:50:21.230Z,10.30
2023-01-05T01:52:52.014Z,10.30
2023-01-05T01:55:21.797Z,10.30
2023-01-05T01:57:51.660Z,10.30
2023-01-05T02:00:21.492Z,10.40
2023-01-05T02:02:55.098Z,10.40
2023-01-05T02:05:29.369Z,10.50
2023-01-05T02:07:57.704Z,10.50
2023-01-05T02:10:40.261Z,10.50
2023-01-05T02:13:26.208Z,10.50
2023-01-05T02:16:05.361Z,10.60
2023-01-05T02:18:58.980Z,10.60
2023-01-05T02:21:40.441Z,10.70
2023-01-05T02:24:33.691Z,10.70
2023-01-05T02:27:27.653Z,10.70
2023-01-05T02:30:35.089Z,10.80
2023-01-05T02:33:12.419Z,10.80
2023-01-05T02:35:44.994Z,10.80
2023-01-05T02:38:28.368Z,10.70
2023-01-05T02:41:00.482Z,10.70
2023-01-05T02:43:30.363Z,10.70
2023-01-05T02:45:59.619Z,10.60
2023-01-05T02:48:29.350Z,10.60
2023-01-05T02:51:02.149Z,10.70
2023-01-05T02:53:34.888Z,10.70
2023-01-05T02:56:09.019Z,10.70
2023-01-05T02:58:44.954Z,10.70
2023-01-05T03:01:19.477Z,10.70
2023-01-05T03:03:57.704Z,10.70
2023-01-05T03:06:30.183Z,10.70
2023-01-05T03:09:01.021Z,10.70
2023-01-05T03:11:59.152Z,10.70
2023-01-05T03:14:32.613Z,10.70
2023-01-05T03:17:02.680Z,10.70
2023-01-05T03:19:39.417Z,10.70
2023-01-05T03:22:33.632Z,10.70
2023-01-05T03:25:22.089Z,10.70
2023-01-05T03:28:08.420Z,10.70
2023-01-05T03:31:02.719Z,10.70
2023-01-05T03:33:54.911Z,10.70
2023-01-05T03:36:29.479Z,10.70
2023-01-05T03:39:00.093Z,10.70
2023-01-05T03:41:31.932Z,10.80
2023-01-05T03:44:00.342Z,10.80
2023-01-05T03:46:32.796Z,10.80
2023-01-05T03:49:01.063Z,10.80
2023-01-05T03:51:32.130Z,10.80
2023-01-05T03:54:03.081Z,10.80
2023-01-05T03:56:33.480Z,10.80
2023-01-05T03:59:01.671Z,10.80
2023-01-05T04:01:29.889Z,10.90
2023-01-05T04:04:00.112Z,10.90
2023-01-05T04:06:31.125Z,10.90
2023-01-05T04:09:00.046Z,10.90
2023-01-05T04:11:28.809Z,10.90
2023-01-05T04:14:03.969Z,10.90
2023-01-05T04:16:34.704Z,10.90
2023-01-05T04:19:11.855Z,10.90
2023-01-05T04:21:41.715Z,10.90
2023-01-05T04:24:11.677Z,10.90
2023-01-05T04:26:42.800Z,10.90
2023-01-05T04:29:12.527Z,10.90
2023-01-05T04:31:42.198Z,10.80
2023-01-05T04:34:10.465Z,10.80
2023-01-05T04:36:41.127Z,10.80
2023-01-05T04:39:11.052Z,10.80
2023-01-05T04:41:39.591Z,10.80
2023-01-05T04:44:07.925Z,10.90
2023-01-05T04:46:36.682Z,10.80
2023-01-05T04:49:05.393Z,10.80
2023-01-05T04:51:33.754Z,10.80
2023-01-05T04:54:03.183Z,10.80
2023-01-05T04:56:32.261Z,10.80
2023-01-05T04:59:00.274Z,10.80
2023-01-05T05:01:30.175Z,10.80
2023-01-05T05:04:00.719Z,10.70
2023-01-05T05:06:28.740Z,10.70
2023-01-05T05:08:57.813Z,10.70
2023-01-05T05:11:28.518Z,10.70
2023-01-05T05:13:57.521Z,10.60
2023-01-05T05:16:26.239Z,10.60
2023-01-05T05:18:55.137Z,10.60
2023-01-05T05:21:27.035Z,10.60
2023-01-05T05:23:55.190Z,10.60
2023-01-05T05:26:23.276Z,10.60
2023-01-05T05:28:53.714Z,10.60
2023-01-05T05:31:21.812Z,10.60
2023-01-05T05:33:49.869Z,10.60
2023-01-05T05:36:18.842Z,10.60
2023-01-05T05:38:46.867Z,10.60
2023-01-05T05:41:15.105Z,10.70
2023-01-05T05:43:43.202Z,10.70
2023-01-05T05:46:12.743Z,10.70
2023-01-05T05:48:40.974Z,10.70
2023-01-05T05:51:09.013Z,10.70
2023-01-05T05:53:37.044Z,10.70
2023-01-05T05:56:05.347Z,10.70
2023-01-05T05:58:33.477Z,10.80
2023-01-05T06:01:01.659Z,10.80
2023-01-05T06:03:31.079Z,10.90
2023-01-05T06:05:59.524Z,10.90
2023-01-05T06:08:29.451Z,10.90
2023-01-05T06:10:58.048Z,10.90
2023-01-05T06:13:26.352Z,11.00
2023-01-05T06:15:54.674Z,11.10
2023-01-05T06:18:22.859Z,11.10
2023-01-05T06:20:57.846Z,11.20
2023-01-05T06:23:29.307Z,11.20
2023-01-05T06:25:57.336Z,11.30
2023-01-05T06:28:25.380Z,11.30
2023-01-05T06:30:53.450Z,11.40
2023-01-05T06:33:21.494Z,11.40
2023-01-05T06:35:49.561Z,11.40
2023-01-05T06:38:18.972Z,11.40
2023-01-05T06:40:50.933Z,11.40
2023-01-05T06:43:19.466Z,11.40
2023-01-05T06:45:48.001Z,11.50
2023-01-05T06:48:16.163Z,11.40
2023-01-05T06:50:44.219Z,11.40
2023-01-05T06:53:12.382Z,11.40
2023-01-05T06:55:42.133Z,11.30
2023-01-05T06:58:10.244Z,11.40
2023-01-05T07:00:38.476Z,11.30
2023-01-05T07:03:08.521Z,11.30
2023-01-05T07:05:36.665Z,11.20
2023-01-05T07:08:05.042Z,11.10
2023-01-05T07:10:33.137Z,11.10
2023-01-05T07:13:02.566Z,11.10
2023-01-05T07:15:30.659Z,11.00
2023-01-05T07:17:58.827Z,11.00
2023-01-05T07:20:27.041Z,11.00
2023-01-05T07:22:55.103Z,10.90
2023-01-05T07:25:23.075Z,10.90
2023-01-05T07:27:53.060Z,10.90
2023-01-05T07:30:22.431Z,11.00
2023-01-05T07:32:50.480Z,11.00
2023-01-05T07:38:11.117Z,11.00
2023-01-05T07:40:39.183Z,11.00
2023-01-05T07:43:07.167Z,11.00
2023-01-05T07:45:36.675Z,11.00
2023-01-05T07:48:05.131Z,11.10
2023-01-05T07:50:33.185Z,11.10
2023-01-05T07:53:01.191Z,11.10
2023-01-05T07:55:29.224Z,11.20
2023-01-05T07:57:57.294Z,11.20
2023-01-05T08:00:25.259Z,11.20
2023-01-05T08:02:54.706Z,11.20
2023-01-05T08:05:22.671Z,11.10
2023-01-05T08:07:50.702Z,11.10
2023-01-05T08:10:30.879Z,11.10
2023-01-05T08:13:23.710Z,11.10
2023-01-05T08:15:52.582Z,11.10
2023-01-05T08:18:22.950Z,11.10
2023-01-05T08:20:53.908Z,11.00
2023-01-05T08:23:26.363Z,10.50
2023-01-05T08:25:54.846Z,10.20
2023-01-05T08:28:23.246Z,9.90
2023-01-05T08:33:21.007Z,9.80
2023-01-05T08:35:49.062Z,9.60
2023-01-05T08:38:17.353Z,9.40
2023-01-05T08:40:45.332Z,9.30
2023-01-05T08:43:13.379Z,9.30
2023-01-05T08:45:41.447Z,9.20
2023-01-05T08:48:10.510Z,9.20
2023-01-05T08:50:39.945Z,9.20
2023-01-05T08:53:08.007Z,9.20
2023-01-05T08:55:36.092Z,9.20
2023-01-05T08:58:06.538Z,9.30
2023-01-05T09:00:35.949Z,9.30
2023-01-05T09:03:04.243Z,9.40
2023-01-05T09:05:33.007Z,9.40
2023-01-05T09:08:02.422Z,9.50
2023-01-05T09:10:30.794Z,9.50
2023-01-05T09:12:58.869Z,9.50
2023-01-05T09:15:26.874Z,9.60
2023-01-05T09:20:23.338Z,9.60
2023-01-05T09:22:51.441Z,9.70
2023-01-05T09:25:20.873Z,9.60
2023-01-05T09:27:48.928Z,9.60
2023-01-05T09:30:17.493Z,9.60
2023-01-05T09:32:45.569Z,9.70
2023-01-05T09:35:13.588Z,9.80
2023-01-05T09:37:41.779Z,9.80
2023-01-05T09:40:13.113Z,9.80
2023-01-05T09:42:47.787Z,9.80
2023-01-05T09:45:25.078Z,9.90
2023-01-05T09:47:54.542Z,10.00
2023-01-05T09:50:25.013Z,10.00
2023-01-05T09:53:00.893Z,10.10
2023-01-05T09:55:32.345Z,10.10
2023-01-05T09:58:07.337Z,10.10
2023-01-05T10:00:39.719Z,10.10
2023-01-05T10:03:23.220Z,10.10
2023-01-05T10:06:02.109Z,10.10
2023-01-05T10:08:36.222Z,10.10
2023-01-05T10:11:26.206Z,10.20
2023-01-05T10:14:00.803Z,10.20
2023-01-05T10:16:30.071Z,10.20
2023-01-05T10:18:58.365Z,10.20
2023-01-05T10:21:35.594Z,10.30
2023-01-05T10:24:18.702Z,10.30
2023-01-05T10:32:26.170Z,10.30
2023-01-05T10:34:58.225Z,10.40
2023-01-05T10:37:53.295Z,10.50
2023-01-05T10:53:29.567Z,10.50
2023-01-05T10:56:04.083Z,10.50
2023-01-05T10:58:33.933Z,10.50
2023-01-05T11:01:06.637Z,10.50
2023-01-05T11:06:30.867Z,10.40
2023-01-05T11:09:07.856Z,10.40
2023-01-05T11:11:36.101Z,10.50
2023-01-05T11:21:44.467Z,10.40
2023-01-05T11:31:58.187Z,10.50
2023-01-05T11:34:38.414Z,10.60
2023-01-05T11:37:14.150Z,10.60
2023-01-05T11:39:48.984Z,10.60
2023-01-05T11:42:25.324Z,10.70
2023-01-05T11:44:56.651Z,10.70
2023-01-05T11:47:30.583Z,10.70
2023-01-05T11:52:39.224Z,10.70
2023-01-05T12:05:45.999Z,10.70
2023-01-05T12:08:18.893Z,10.70
2023-01-05T12:11:00.991Z,10.70
2023-01-05T12:13:54.797Z,10.70
2023-01-05T12:51:32.758Z,10.70
2023-01-05T13:19:23.143Z,10.70
2023-01-05T13:24:36.938Z,10.90
2023-01-05T13:27:05.417Z,10.90
2023-01-05T14:16:53.078Z,10.90
2023-01-05T14:30:04.097Z,10.50
2023-01-05T14:32:35.052Z,10.20
2023-01-05T14:35:18.132Z,10.20
2023-01-05T14:37:55.240Z,10.10
2023-01-05T14:40:36.384Z,10.10
2023-01-05T14:43:20.559Z,10.00
2023-01-05T14:46:01.085Z,9.90
2023-01-05T14:48:32.585Z,9.80
2023-01-05T14:51:15.226Z,9.70
2023-01-05T14:53:45.492Z,9.70
2023-01-05T15:04:22.485Z,9.60
2023-01-05T15:07:08.624Z,9.50
2023-01-05T15:09:53.816Z,9.40
2023-01-05T15:12:49.816Z,9.40
2023-01-05T15:15:44.733Z,9.40
2023-01-05T15:18:56.268Z,9.30
2023-01-05T15:21:59.755Z,9.30
2023-01-05T15:25:06.586Z,9.30
2023-01-05T15:27:56.091Z,9.20
2023-01-05T15:30:46.510Z,9.20
2023-01-05T15:33:18.935Z,9.20
2023-01-05T15:35:56.624Z,9.20
2023-01-05T15:38:26.699Z,9.20
2023-01-05T15:41:02.373Z,9.20
2023-01-05T15:43:30.512Z,9.20
2023-01-05T15:45:59.592Z,9.20
2023-01-05T15:48:37.540Z,9.20
2023-01-05T15:51:13.804Z,9.20
2023-01-05T15:53:55.283Z,9.20
2023-01-05T15:56:31.260Z,9.10
2023-01-05T15:58:59.894Z,9.10
2023-01-05T16:01:30.062Z,9.10
2023-01-05T16:04:09.093Z,9.10
2023-01-05T16:06:40.880Z,9.10
2023-01-05T16:09:12.335Z,9.10
2023-01-05T16:11:44.123Z,9.10
2023-01-05T16:14:17.445Z,9.10
2023-01-05T16:16:54.528Z,9.10
2023-01-05T16:19:28.839Z,9.10
2023-01-05T16:22:02.346Z,9.10
2023-01-05T16:24:38.866Z,9.10
2023-01-05T16:27:10.811Z,9.10
2023-01-05T16:29:40.962Z,9.10
2023-01-05T16:32:29.158Z,9.10
2023-01-05T16:35:23.693Z,9.10
2023-01-05T16:38:26.851Z,9.10
2023-01-05T16:41:07.556Z,9.20
2023-01-05T16:43:38.244Z,9.10
2023-01-05T17:11:52.985Z,9.10
2023-01-05T17:14:22.700Z,9.00
2023-01-05T17:16:50.841Z,8.90
2023-01-05T17:19:21.469Z,8.90
2023-01-05T17:47:28.964Z,8.90
2023-01-05T18:02:20.721Z,9.00
2023-01-05T18:04:49.635Z,9.00
2023-01-05T18:07:18.435Z,9.00
2023-01-05T18:09:46.492Z,9.00
